createdAt,value
2022-10-17T00:01:15.677Z,60.98
2022-10-17T00:03:44.849Z,68.46
2022-10-17T00:06:15.273Z,69.06
2022-10-17T00:08:45.118Z,62.46
2022-10-17T00:11:23.199Z,55.86
2022-10-17T00:13:56.323Z,54.82
2022-10-17T00:16:36.566Z,56.35
2022-10-17T00:19:07.952Z,57.67
2022-10-17T00:21:35.681Z,61.60
2022-10-17T00:24:07.256Z,68.95
2022-10-17T00:26:36.505Z,69.76
2022-10-17T00:29:05.348Z,64.46
2022-10-17T00:31:33.207Z,60.76
2022-10-17T00:34:01.069Z,54.90
2022-10-17T00:36:28.703Z,54.03
2022-10-17T00:38:59.211Z,56.30
2022-10-17T00:41:33.353Z,59.58
2022-10-17T00:44:31.050Z,60.75
2022-10-17T00:47:05.109Z,70.40
2022-10-17T00:49:36.439Z,68.04
2022-10-17T00:52:29.184Z,62.76
2022-10-17T00:55:25.394Z,54.17
2022-10-17T00:57:54.614Z,53.04
2022-10-17T01:00:24.519Z,54.79
2022-10-17T01:02:53.426Z,58.18
2022-10-17T01:05:22.534Z,60.27
2022-10-17T01:07:55.077Z,60.71
2022-10-17T01:10:44.549Z,68.17
2022-10-17T01:13:27.171Z,70.13
2022-10-17T01:16:40.393Z,63.65
2022-10-17T01:19:44.030Z,55.69
2022-10-17T01:22:51.531Z,55.79
2022-10-17T01:25:47.433Z,57.99
2022-10-17T01:28:46.750Z,59.29
2022-10-17T01:32:04.271Z,60.98
2022-10-17T01:35:20.508Z,71.97
2022-10-17T01:38:03.062Z,67.86
2022-10-17T01:40:49.103Z,60.41
2022-10-17T01:43:26.075Z,54.50
2022-10-17T01:46:03.515Z,54.81
2022-10-17T01:48:38.872Z,57.16
2022-10-17T01:51:20.995Z,59.05
2022-10-17T01:54:07.678Z,58.85
2022-10-17T01:56:42.374Z,60.47
2022-10-17T01:59:42.618Z,71.32
2022-10-17T02:02:14.148Z,69.78
2022-10-17T02:04:43.403Z,62.17
2022-10-17T02:07:13.764Z,55.27
2022-10-17T02:09:42.536Z,53.79
2022-10-17T02:12:58.150Z,56.39
2022-10-17T02:15:55.237Z,57.14
2022-10-17T02:18:34.845Z,58.43
2022-10-17T02:21:26.262Z,60.99
2022-10-17T02:24:17.896Z,68.76
2022-10-17T02:27:06.890Z,67.61
2022-10-17T02:29:50.395Z,61.16
2022-10-17T02:32:56.894Z,53.73
2022-10-17T02:35:31.701Z,53.80
2022-10-17T02:38:04.057Z,56.94
2022-10-17T02:40:33.001Z,58.15
2022-10-17T02:43:02.759Z,60.92
2022-10-17T02:45:36.232Z,69.67
2022-10-17T02:48:15.128Z,69.32
2022-10-17T02:51:27.812Z,63.70
2022-10-17T02:54:10.758Z,55.67
2022-10-17T02:56:47.072Z,54.23
2022-10-17T02:59:20.454Z,55.59
2022-10-17T03:01:51.622Z,58.55
2022-10-17T03:04:21.045Z,59.88
2022-10-17T03:06:49.759Z,61.78
2022-10-17T03:09:18.026Z,69.42
2022-10-17T03:11:48.508Z,70.16
2022-10-17T03:14:17.585Z,62.83
2022-10-17T03:16:45.762Z,57.99
2022-10-17T03:19:13.445Z,53.04
2022-10-17T03:21:43.161Z,54.31
2022-10-17T03:24:10.840Z,55.42
2022-10-17T03:26:38.552Z,59.65
2022-10-17T03:29:06.353Z,66.25
2022-10-17T03:31:34.473Z,68.34
2022-10-17T03:34:03.171Z,64.29
2022-10-17T03:36:30.851Z,59.93
2022-10-17T03:38:58.761Z,53.69
2022-10-17T03:41:27.646Z,53.02
2022-10-17T03:43:56.058Z,54.14
2022-10-17T03:46:23.689Z,57.45
2022-10-17T03:48:51.381Z,59.85
2022-10-17T03:51:21.769Z,66.45
2022-10-17T03:53:51.557Z,69.67
2022-10-17T03:56:24.554Z,63.05
2022-10-17T03:58:52.806Z,55.39
2022-10-17T04:01:22.663Z,54.23
2022-10-17T04:03:56.177Z,59.52
2022-10-17T04:06:24.824Z,60.78
2022-10-17T04:08:53.109Z,68.95
2022-10-17T04:11:22.818Z,69.25
2022-10-17T04:13:57.542Z,63.99
2022-10-17T04:16:31.078Z,60.06
2022-10-17T04:19:00.089Z,54.68
2022-10-17T04:21:30.069Z,55.36
2022-10-17T04:24:02.075Z,57.01
2022-10-17T04:26:29.837Z,58.89
2022-10-17T04:28:57.515Z,61.49
2022-10-17T04:31:25.233Z,69.60
2022-10-17T04:33:53.280Z,69.40
2022-10-17T04:36:21.328Z,64.27
2022-10-17T04:38:49.545Z,58.55
2022-10-17T04:41:21.465Z,53.11
2022-10-17T04:43:51.153Z,54.64
2022-10-17T04:46:19.959Z,58.70
2022-10-17T04:48:47.698Z,59.19
2022-10-17T04:51:21.983Z,61.36
2022-10-17T04:53:52.336Z,69.98
2022-10-17T04:56:24.038Z,69.85
2022-10-17T04:58:52.523Z,65.39
2022-10-17T05:01:23.471Z,61.71
2022-10-17T05:03:53.009Z,57.05
2022-10-17T05:06:25.538Z,55.82
2022-10-17T05:08:53.746Z,57.55
2022-10-17T05:11:27.667Z,59.88
2022-10-17T05:14:26.002Z,61.27
2022-10-17T05:16:53.796Z,69.70
2022-10-17T05:19:22.743Z,69.67
2022-10-17T05:21:50.982Z,64.40
2022-10-17T05:24:18.668Z,58.67
2022-10-17T05:26:46.848Z,53.87
2022-10-17T05:29:18.700Z,56.04
2022-10-17T05:31:46.722Z,58.08
2022-10-17T05:34:14.771Z,60.31
2022-10-17T05:36:42.983Z,66.49
2022-10-17T05:39:14.893Z,70.17
2022-10-17T05:41:42.570Z,65.93
2022-10-17T05:44:13.062Z,60.37
2022-10-17T05:46:43.374Z,54.11
2022-10-17T05:49:19.775Z,54.67
2022-10-17T05:51:59.003Z,57.51
2022-10-17T05:54:27.373Z,59.25
2022-10-17T05:56:56.369Z,61.38
2022-10-17T05:59:28.192Z,69.79
2022-10-17T06:01:55.918Z,71.16
2022-10-17T06:04:24.228Z,65.18
2022-10-17T06:06:52.434Z,60.18
2022-10-17T06:09:24.270Z,54.74
2022-10-17T06:11:52.006Z,54.44
2022-10-17T06:14:20.669Z,57.44
2022-10-17T06:16:49.404Z,59.91
2022-10-17T06:19:18.428Z,60.86
2022-10-17T06:21:46.118Z,67.45
2022-10-17T06:24:14.146Z,68.31
2022-10-17T06:26:43.558Z,64.15
2022-10-17T06:29:12.830Z,60.74
2022-10-17T06:31:42.900Z,55.19
2022-10-17T06:34:11.313Z,54.36
2022-10-17T06:36:40.522Z,57.22
2022-10-17T06:39:10.715Z,60.12
2022-10-17T06:41:41.726Z,67.20
2022-10-17T06:44:11.397Z,70.46
2022-10-17T06:46:41.416Z,64.29
2022-10-17T06:49:12.701Z,60.19
2022-10-17T06:51:40.344Z,54.47
2022-10-17T06:54:09.028Z,53.06
2022-10-17T06:56:39.834Z,57.25
2022-10-17T06:59:12.101Z,59.49
2022-10-17T07:01:41.821Z,62.04
2022-10-17T07:04:13.046Z,71.26
2022-10-17T07:06:41.654Z,67.46
2022-10-17T07:09:09.803Z,62.59
2022-10-17T07:11:38.367Z,55.94
2022-10-17T07:14:10.501Z,54.84
2022-10-17T07:16:38.419Z,57.69
2022-10-17T07:19:06.540Z,59.74
2022-10-17T07:21:36.726Z,67.46
2022-10-17T07:24:11.587Z,68.37
2022-10-17T07:26:39.470Z,62.72
2022-10-17T07:29:07.935Z,58.48
2022-10-17T07:31:35.806Z,54.54
2022-10-17T07:34:03.823Z,56.51
2022-10-17T07:36:32.044Z,57.23
2022-10-17T07:39:00.329Z,57.47
2022-10-17T07:41:29.393Z,59.98
2022-10-17T07:43:58.166Z,68.92
2022-10-17T07:46:26.991Z,70.50
2022-10-17T07:48:54.774Z,64.02
2022-10-17T07:51:23.619Z,59.96
2022-10-17T07:53:51.410Z,54.47
2022-10-17T07:56:20.381Z,54.96
2022-10-17T07:58:49.475Z,58.88
2022-10-17T08:01:18.326Z,63.17
2022-10-17T08:03:49.834Z,66.92
2022-10-17T08:06:18.920Z,65.14
2022-10-17T08:08:46.657Z,61.18
2022-10-17T08:11:17.759Z,57.13
2022-10-17T08:13:45.526Z,55.61
2022-10-17T08:16:13.900Z,58.51
2022-10-17T08:18:44.172Z,64.54
2022-10-17T08:21:14.100Z,67.69
2022-10-17T08:23:42.574Z,63.13
2022-10-17T08:26:14.953Z,57.62
2022-10-17T08:28:45.844Z,56.23
2022-10-17T08:31:19.014Z,57.77
2022-10-17T08:33:49.584Z,61.23
2022-10-17T08:36:21.469Z,58.62
2022-10-17T08:38:52.831Z,67.59
2022-10-17T08:41:29.853Z,71.21
2022-10-17T08:44:09.394Z,65.47
2022-10-17T08:46:42.203Z,61.08
2022-10-17T08:49:27.581Z,55.47
2022-10-17T08:52:11.347Z,55.07
2022-10-17T08:54:53.862Z,56.72
2022-10-17T08:57:22.032Z,59.56
2022-10-17T08:59:53.496Z,66.49
2022-10-17T09:02:49.756Z,67.44
2022-10-17T09:06:18.461Z,63.90
2022-10-17T09:09:14.398Z,60.25
2022-10-17T09:12:10.514Z,54.72
2022-10-17T09:15:07.156Z,56.37
2022-10-17T09:17:49.933Z,57.45
2022-10-17T09:20:24.535Z,59.08
2022-10-17T09:23:11.519Z,66.99
2022-10-17T09:25:48.105Z,70.11
2022-10-17T09:28:39.965Z,64.11
2022-10-17T09:31:25.056Z,62.84
2022-10-17T09:33:58.001Z,59.87
2022-10-17T09:36:39.133Z,53.81
2022-10-17T09:39:31.790Z,54.52
2022-10-17T09:42:02.219Z,56.35
2022-10-17T09:44:56.923Z,57.22
2022-10-17T09:47:35.155Z,61.61
2022-10-17T09:50:03.245Z,70.46
2022-10-17T09:52:39.497Z,68.88
2022-10-17T09:55:44.497Z,61.86
2022-10-17T09:58:12.572Z,55.03
2022-10-17T10:00:47.472Z,54.30
2022-10-17T10:03:27.521Z,55.38
2022-10-17T10:06:25.415Z,57.85
2022-10-17T10:09:00.263Z,68.71
2022-10-17T10:11:56.361Z,67.63
2022-10-17T10:14:34.805Z,63.09
2022-10-17T10:17:33.214Z,57.06
2022-10-17T10:20:25.405Z,55.95
2022-10-17T10:23:22.350Z,59.62
2022-10-17T10:25:59.844Z,66.32
2022-10-17T10:28:35.846Z,67.20
2022-10-17T10:31:11.220Z,62.64
2022-10-17T10:33:46.973Z,57.66
2022-10-17T10:36:21.636Z,56.54
2022-10-17T10:39:01.272Z,60.24
2022-10-17T10:41:48.545Z,66.94
2022-10-17T10:44:29.078Z,67.33
2022-10-17T10:47:21.133Z,62.59
2022-10-17T10:50:06.769Z,55.49
2022-10-17T10:52:56.752Z,55.49
2022-10-17T10:55:40.370Z,59.53
2022-10-17T10:58:51.081Z,68.44
2022-10-17T11:01:52.213Z,63.47
2022-10-17T11:04:55.024Z,57.40
2022-10-17T11:07:44.273Z,55.25
2022-10-17T11:10:49.361Z,57.77
2022-10-17T11:13:29.176Z,62.35
2022-10-17T11:16:38.195Z,66.45
2022-10-17T11:19:28.008Z,61.99
2022-10-17T11:22:10.495Z,57.77
2022-10-17T11:24:54.606Z,57.06
2022-10-17T11:27:29.486Z,57.52
2022-10-17T11:29:58.520Z,61.93
2022-10-17T11:32:54.170Z,68.13
2022-10-17T11:35:40.861Z,67.00
2022-10-17T11:38:42.550Z,63.81
2022-10-17T11:41:18.815Z,57.74
2022-10-17T11:43:57.414Z,54.20
2022-10-17T11:46:29.654Z,57.99
2022-10-17T11:49:20.417Z,61.39
2022-10-17T11:52:11.174Z,69.00
2022-10-17T11:54:49.303Z,64.29
2022-10-17T11:57:26.327Z,61.01
2022-10-17T12:00:25.206Z,57.03
2022-10-17T12:03:34.867Z,56.29
2022-10-17T12:07:01.453Z,62.26
2022-10-17T12:09:53.593Z,68.07
2022-10-17T12:12:34.392Z,62.22
2022-10-17T12:15:14.198Z,56.66
2022-10-17T12:17:47.100Z,54.98
2022-10-17T12:20:21.716Z,58.86
2022-10-17T12:22:59.586Z,65.12
2022-10-17T12:25:33.695Z,65.93
2022-10-17T12:28:07.627Z,62.30
2022-10-17T12:30:48.553Z,55.45
2022-10-17T12:33:26.580Z,54.48
2022-10-17T12:36:27.769Z,57.40
2022-10-17T12:39:02.370Z,59.58
2022-10-17T12:41:41.710Z,67.99
2022-10-17T12:44:16.678Z,70.38
2022-10-17T12:47:22.770Z,63.19
2022-10-17T12:49:56.819Z,57.61
2022-10-17T12:52:35.761Z,55.35
2022-10-17T12:55:15.796Z,58.41
2022-10-17T12:57:45.541Z,64.25
2022-10-17T13:00:32.704Z,63.62
2022-10-17T13:03:15.485Z,61.09
2022-10-17T13:05:54.363Z,60.07
2022-10-17T13:08:39.189Z,55.30
2022-10-17T13:11:10.171Z,57.66
2022-10-17T13:14:06.643Z,62.37
2022-10-17T13:16:41.690Z,66.89
2022-10-17T13:19:17.794Z,63.83
2022-10-17T13:22:06.559Z,59.92
2022-10-17T13:24:39.369Z,55.46
2022-10-17T13:27:31.607Z,57.16
2022-10-17T13:30:33.876Z,57.88
2022-10-17T13:33:04.771Z,58.66
2022-10-17T13:38:35.667Z,69.37
2022-10-17T13:41:34.923Z,63.31
2022-10-17T13:44:11.685Z,61.07
2022-10-17T13:46:40.807Z,55.22
2022-10-17T13:49:41.936Z,55.87
2022-10-17T13:52:24.300Z,56.31
2022-10-17T13:54:57.631Z,58.29
2022-10-17T13:57:39.967Z,61.55
2022-10-17T14:00:19.630Z,68.46
2022-10-17T14:02:49.075Z,70.59
2022-10-17T14:05:24.163Z,64.26
2022-10-17T14:08:12.431Z,60.88
2022-10-17T14:10:44.625Z,55.52
2022-10-17T14:13:35.978Z,56.18
2022-10-17T14:16:09.458Z,59.58
2022-10-17T14:18:38.761Z,62.16
2022-10-17T14:24:35.686Z,67.26
2022-10-17T14:27:04.673Z,60.67
2022-10-17T14:29:55.187Z,55.15
2022-10-17T14:32:23.889Z,55.17
2022-10-17T14:35:10.527Z,58.30
2022-10-17T14:37:54.308Z,60.29
2022-10-17T14:40:28.405Z,68.97
2022-10-17T14:43:05.909Z,66.74
2022-10-17T14:45:38.258Z,61.34
2022-10-17T14:48:20.631Z,55.28
2022-10-17T14:51:18.579Z,55.56
2022-10-17T14:54:25.088Z,57.28
2022-10-17T14:56:55.057Z,60.20
2022-10-17T14:59:52.273Z,68.09
2022-10-17T15:02:13.690Z,66.06
2022-10-17T15:04:41.877Z,60.39
2022-10-17T15:07:17.703Z,54.87
2022-10-17T15:09:49.426Z,56.04
2022-10-17T15:12:25.198Z,58.28
2022-10-17T15:14:54.250Z,61.71
2022-10-17T15:17:26.782Z,69.41
2022-10-17T15:19:58.852Z,65.74
2022-10-17T15:22:28.026Z,61.21
2022-10-17T15:24:55.865Z,56.41
2022-10-17T15:27:26.563Z,54.87
2022-10-17T15:29:54.701Z,57.42
2022-10-17T15:32:22.924Z,59.34
2022-10-17T15:34:50.742Z,66.80
2022-10-17T15:37:26.867Z,67.98
2022-10-17T15:39:55.952Z,63.80
2022-10-17T15:42:30.514Z,59.80
2022-10-17T15:44:59.850Z,54.75
2022-10-17T15:47:34.884Z,55.97
2022-10-17T15:50:04.893Z,58.43
2022-10-17T15:52:32.986Z,59.35
2022-10-17T15:55:05.115Z,64.86
2022-10-17T15:57:40.632Z,67.99
2022-10-17T16:00:20.942Z,64.31
2022-10-17T16:02:51.017Z,59.56
2022-10-17T16:05:26.557Z,55.61
2022-10-17T16:07:57.325Z,56.11
2022-10-17T16:10:26.895Z,58.23
2022-10-17T16:12:56.720Z,64.24
2022-10-17T16:15:29.403Z,68.65
2022-10-17T16:18:01.670Z,63.12
2022-10-17T16:20:34.552Z,58.28
2022-10-17T16:23:05.184Z,55.30
2022-10-17T16:25:33.793Z,58.03
2022-10-17T16:28:01.867Z,62.59
2022-10-17T16:30:33.071Z,67.47
2022-10-17T16:33:00.924Z,64.36
2022-10-17T16:35:34.896Z,62.11
2022-10-17T16:38:08.045Z,57.34
2022-10-17T16:40:40.346Z,56.69
2022-10-17T16:43:13.745Z,59.07
2022-10-17T16:45:42.988Z,67.90
2022-10-17T16:48:11.917Z,66.74
2022-10-17T16:50:40.357Z,62.05
2022-10-17T16:53:09.481Z,57.02
2022-10-17T16:55:41.123Z,56.20
2022-10-17T16:58:10.594Z,58.78
2022-10-17T17:00:41.300Z,60.37
2022-10-17T17:03:13.342Z,66.19
2022-10-17T17:05:41.985Z,67.94
2022-10-17T17:08:12.480Z,64.57
2022-10-17T17:10:51.594Z,60.84
2022-10-17T17:13:23.619Z,55.81
2022-10-17T17:15:56.121Z,55.54
2022-10-17T17:18:25.032Z,56.20
2022-10-17T17:21:03.625Z,59.43
2022-10-17T17:23:36.136Z,68.65
2022-10-17T17:26:20.675Z,68.19
2022-10-17T17:28:50.084Z,62.82
2022-10-17T17:31:22.396Z,59.56
2022-10-17T17:33:52.103Z,54.43
2022-10-17T17:36:28.726Z,55.22
2022-10-17T17:39:00.221Z,58.33
2022-10-17T17:41:29.952Z,60.68
2022-10-17T17:43:58.241Z,67.42
2022-10-17T17:46:26.685Z,67.98
2022-10-17T17:48:55.953Z,62.21
2022-10-17T17:51:29.478Z,56.79
2022-10-17T17:53:57.765Z,56.12
2022-10-17T17:56:29.995Z,58.45
2022-10-17T17:59:02.223Z,59.42
2022-10-17T18:01:38.007Z,68.41
2022-10-17T18:04:09.033Z,69.04
2022-10-17T18:06:40.359Z,63.01
2022-10-17T18:09:09.844Z,59.02
2022-10-17T18:11:40.078Z,54.83
2022-10-17T18:14:13.006Z,55.94
2022-10-17T18:16:42.719Z,59.05
2022-10-17T18:19:11.915Z,61.75
2022-10-17T18:21:39.683Z,68.28
2022-10-17T18:24:08.362Z,67.54
2022-10-17T18:26:36.606Z,61.84
2022-10-17T18:29:04.861Z,55.96
2022-10-17T18:31:36.061Z,55.63
2022-10-17T18:34:07.705Z,58.22
2022-10-17T18:36:37.192Z,60.54
2022-10-17T18:39:05.708Z,67.26
2022-10-17T18:41:35.781Z,65.91
2022-10-17T18:44:04.949Z,59.90
2022-10-17T18:46:43.454Z,54.58
2022-10-17T18:49:19.039Z,54.89
2022-10-17T18:51:47.315Z,56.37
2022-10-17T18:54:22.126Z,59.82
2022-10-17T18:56:54.281Z,66.81
2022-10-17T18:59:23.502Z,68.62
2022-10-17T19:01:51.774Z,63.84
2022-10-17T19:04:21.618Z,60.57
2022-10-17T19:06:50.307Z,55.51
2022-10-17T19:09:18.014Z,55.35
2022-10-17T19:11:47.500Z,59.26
2022-10-17T19:14:15.419Z,64.79
2022-10-17T19:16:48.012Z,65.47
2022-10-17T19:19:19.324Z,63.36
2022-10-17T19:21:48.500Z,59.03
2022-10-17T19:24:36.561Z,55.08
2022-10-17T19:27:06.271Z,57.52
2022-10-17T19:29:34.316Z,59.76
2022-10-17T19:32:07.702Z,65.76
2022-10-17T19:34:38.997Z,65.80
2022-10-17T19:37:07.345Z,63.17
2022-10-17T19:39:35.039Z,58.75
2022-10-17T19:42:06.689Z,60.28
2022-10-17T19:44:35.663Z,65.02
2022-10-17T19:47:04.991Z,63.98
2022-10-17T19:49:33.880Z,62.16
2022-10-17T19:52:01.602Z,60.04
2022-10-17T19:54:29.961Z,59.15
2022-10-17T19:56:59.775Z,62.27
2022-10-17T19:59:27.598Z,66.31
2022-10-17T20:01:58.006Z,64.56
2022-10-17T20:04:28.393Z,61.27
2022-10-17T20:07:00.036Z,60.02
2022-10-17T20:09:29.362Z,55.45
2022-10-17T20:11:59.433Z,55.49
2022-10-17T20:14:27.097Z,58.89
2022-10-17T20:16:55.278Z,60.48
2022-10-17T20:19:23.169Z,67.25
2022-10-17T20:21:50.990Z,69.05
2022-10-17T20:24:18.818Z,62.46
2022-10-17T20:26:46.553Z,56.78
2022-10-17T20:29:20.412Z,56.17
2022-10-17T20:31:50.712Z,58.98
2022-10-17T20:34:20.301Z,61.72
2022-10-17T20:36:49.049Z,67.96
2022-10-17T20:39:21.362Z,66.65
2022-10-17T20:41:50.283Z,62.97
2022-10-17T20:44:21.303Z,57.91
2022-10-17T20:47:01.233Z,56.76
2022-10-17T20:49:32.101Z,58.19
2022-10-17T20:52:01.183Z,61.25
2022-10-17T20:54:30.500Z,68.25
2022-10-17T20:57:01.135Z,69.35
2022-10-17T20:59:35.174Z,65.56
2022-10-17T21:02:05.675Z,60.84
2022-10-17T21:04:45.868Z,55.35
2022-10-17T21:07:15.534Z,55.80
2022-10-17T21:09:44.468Z,57.44
2022-10-17T21:12:18.121Z,59.14
2022-10-17T21:14:57.020Z,68.52
2022-10-17T21:17:24.821Z,67.52
2022-10-17T21:19:54.666Z,61.89
2022-10-17T21:22:22.382Z,55.57
2022-10-17T21:24:50.082Z,55.34
2022-10-17T21:27:20.178Z,57.11
2022-10-17T21:29:49.166Z,61.72
2022-10-17T21:32:31.868Z,68.21
2022-10-17T21:35:05.113Z,64.27
2022-10-17T21:37:33.084Z,61.72
2022-10-17T21:40:00.750Z,60.62
2022-10-17T21:42:29.854Z,58.15
2022-10-17T21:44:58.289Z,58.28
2022-10-17T21:47:30.151Z,60.24
2022-10-17T21:49:58.578Z,66.39
2022-10-17T21:52:28.076Z,67.38
2022-10-17T21:54:57.254Z,63.50
2022-10-17T21:57:25.325Z,61.84
2022-10-17T21:59:57.760Z,58.26
2022-10-17T22:02:25.532Z,57.01
2022-10-17T22:04:54.081Z,59.04
2022-10-17T22:07:22.558Z,64.20
2022-10-17T22:09:50.226Z,67.58
2022-10-17T22:12:17.912Z,62.68
2022-10-17T22:14:45.673Z,58.53
2022-10-17T22:17:13.703Z,54.83
2022-10-17T22:19:41.411Z,56.37
2022-10-17T22:22:09.477Z,59.62
2022-10-17T22:24:39.065Z,65.88
2022-10-17T22:27:13.594Z,64.69
2022-10-17T22:29:41.573Z,63.07
2022-10-17T22:32:09.327Z,60.43
2022-10-17T22:34:37.378Z,57.98
2022-10-17T22:37:05.038Z,61.75
2022-10-17T22:39:35.098Z,64.73
2022-10-17T22:42:03.002Z,64.33
2022-10-17T22:44:33.637Z,61.64
2022-10-17T22:47:02.818Z,60.07
2022-10-17T22:49:32.846Z,55.61
2022-10-17T22:52:02.091Z,55.45
2022-10-17T22:54:30.676Z,59.16
2022-10-17T22:56:58.855Z,62.70
2022-10-17T22:59:27.337Z,69.34
2022-10-17T23:01:55.273Z,66.32
2022-10-17T23:04:24.463Z,63.07
2022-10-17T23:06:52.828Z,60.75
2022-10-17T23:09:22.340Z,56.52
2022-10-17T23:11:51.121Z,55.50
2022-10-17T23:14:18.933Z,57.84
2022-10-17T23:16:49.146Z,60.92
2022-10-17T23:19:16.810Z,68.62
2022-10-17T23:21:45.662Z,66.86
2022-10-17T23:24:13.460Z,61.73
2022-10-17T23:26:41.125Z,56.46
2022-10-17T23:29:13.029Z,55.48
2022-10-17T23:31:40.793Z,56.83
2022-10-17T23:34:08.950Z,59.66
2022-10-17T23:36:38.644Z,66.03
2022-10-17T23:39:08.758Z,67.15
2022-10-17T23:41:36.428Z,61.89
2022-10-17T23:44:05.243Z,56.19
2022-10-17T23:46:33.090Z,55.79
2022-10-17T23:49:04.719Z,57.22
2022-10-17T23:51:33.939Z,60.19
2022-10-17T23:54:01.680Z,66.71
2022-10-17T23:56:29.313Z,66.87
2022-10-17T23:58:57.019Z,61.74
